sensor_id;sensor_type;location;lat;lon;timestamp;temperature;humidity
69677;DHT22;56914;51.058;9.326;2023-01-25T00:00:19;6.40;66.70
69677;DHT22;56914;51.058;9.326;2023-01-25T00:01:21;6.40;67.00
69677;DHT22;56914;51.058;9.326;2023-01-25T00:02:24;6.40;66.90
69677;DHT22;56914;51.058;9.326;2023-01-25T00:03:28;6.40;66.80
69677;DHT22;56914;51.058;9.326;2023-01-25T00:04:33;6.40;66.90
69677;DHT22;56914;51.058;9.326;2023-01-25T00:05:35;6.40;66.80
69677;DHT22;56914;51.058;9.326;2023-01-25T00:06:39;6.50;66.80
69677;DHT22;56914;51.058;9.326;2023-01-25T00:07:41;6.50;66.70
69677;DHT22;56914;51.058;9.326;2023-01-25T00:08:48;6.60;66.70
69677;DHT22;56914;51.058;9.326;2023-01-25T00:09:50;6.60;66.40
69677;DHT22;56914;51.058;9.326;2023-01-25T00:10:54;6.60;66.40
69677;DHT22;56914;51.058;9.326;2023-01-25T00:11:59;6.60;66.30
69677;DHT22;56914;51.058;9.326;2023-01-25T00:13:02;6.60;66.30
69677;DHT22;56914;51.058;9.326;2023-01-25T00:14:05;6.60;66.10
69677;DHT22;56914;51.058;9.326;2023-01-25T00:15:10;6.50;66.20
69677;DHT22;56914;51.058;9.326;2023-01-25T00:16:14;6.60;66.30
69677;DHT22;56914;51.058;9.326;2023-01-25T00:17:18;6.60;66.40
69677;DHT22;56914;51.058;9.326;2023-01-25T00:18:20;6.60;66.30
69677;DHT22;56914;51.058;9.326;2023-01-25T00:19:23;6.60;66.30
69677;DHT22;56914;51.058;9.326;2023-01-25T00:20:27;6.70;66.30
69677;DHT22;56914;51.058;9.326;2023-01-25T00:21:30;6.70;66.00
69677;DHT22;56914;51.058;9.326;2023-01-25T00:22:33;6.70;65.90
69677;DHT22;56914;51.058;9.326;2023-01-25T00:23:36;6.80;65.90
69677;DHT22;56914;51.058;9.326;2023-01-25T00:24:38;6.70;65.90
69677;DHT22;56914;51.058;9.326;2023-01-25T00:25:42;6.80;65.80
69677;DHT22;56914;51.058;9.326;2023-01-25T00:26:46;6.80;65.30
69677;DHT22;56914;51.058;9.326;2023-01-25T00:27:48;6.80;65.40
69677;DHT22;56914;51.058;9.326;2023-01-25T00:28:53;6.80;65.30
69677;DHT22;56914;51.058;9.326;2023-01-25T00:29:56;6.90;65.10
69677;DHT22;56914;51.058;9.326;2023-01-25T00:31:04;6.90;65.60
69677;DHT22;56914;51.058;9.326;2023-01-25T00:32:27;6.90;65.00
69677;DHT22;56914;51.058;9.326;2023-01-25T00:33:39;6.90;64.80
69677;DHT22;56914;51.058;9.326;2023-01-25T00:34:46;6.80;65.00
69677;DHT22;56914;51.058;9.326;2023-01-25T00:35:55;6.80;64.80
69677;DHT22;56914;51.058;9.326;2023-01-25T00:37:02;6.90;64.80
69677;DHT22;56914;51.058;9.326;2023-01-25T00:38:27;6.80;64.90
69677;DHT22;56914;51.058;9.326;2023-01-25T00:39:31;6.80;64.80
69677;DHT22;56914;51.058;9.326;2023-01-25T00:40:36;6.90;64.90
69677;DHT22;56914;51.058;9.326;2023-01-25T00:41:39;6.90;64.90
69677;DHT22;56914;51.058;9.326;2023-01-25T00:42:42;6.90;64.90
69677;DHT22;56914;51.058;9.326;2023-01-25T00:43:47;6.90;64.90
69677;DHT22;56914;51.058;9.326;2023-01-25T00:44:50;6.90;65.00
69677;DHT22;56914;51.058;9.326;2023-01-25T00:45:59;6.90;64.80
69677;DHT22;56914;51.058;9.326;2023-01-25T00:47:02;6.90;64.60
69677;DHT22;56914;51.058;9.326;2023-01-25T00:48:06;6.90;64.80
69677;DHT22;56914;51.058;9.326;2023-01-25T00:49:19;6.90;64.90
69677;DHT22;56914;51.058;9.326;2023-01-25T00:50:22;6.90;65.00
69677;DHT22;56914;51.058;9.326;2023-01-25T00:51:27;6.90;65.00
69677;DHT22;56914;51.058;9.326;2023-01-25T00:52:29;6.90;65.00
69677;DHT22;56914;51.058;9.326;2023-01-25T00:53:33;6.90;64.80
69677;DHT22;56914;51.058;9.326;2023-01-25T00:54:35;7.00;64.80
69677;DHT22;56914;51.058;9.326;2023-01-25T00:55:39;6.90;64.60
69677;DHT22;56914;51.058;9.326;2023-01-25T00:56:41;7.00;64.80
69677;DHT22;56914;51.058;9.326;2023-01-25T00:57:44;6.90;64.60
69677;DHT22;56914;51.058;9.326;2023-01-25T00:58:47;6.80;65.00
69677;DHT22;56914;51.058;9.326;2023-01-25T00:59:50;6.80;65.10
69677;DHT22;56914;51.058;9.326;2023-01-25T01:00:53;6.70;65.30
69677;DHT22;56914;51.058;9.326;2023-01-25T01:01:56;6.70;65.40
69677;DHT22;56914;51.058;9.326;2023-01-25T01:02:59;6.70;65.50
69677;DHT22;56914;51.058;9.326;2023-01-25T01:04:02;6.70;65.50
69677;DHT22;56914;51.058;9.326;2023-01-25T01:05:07;6.70;65.40
69677;DHT22;56914;51.058;9.326;2023-01-25T01:06:12;6.80;65.50
69677;DHT22;56914;51.058;9.326;2023-01-25T01:07:15;6.70;65.40
69677;DHT22;56914;51.058;9.326;2023-01-25T01:08:19;6.70;65.50
69677;DHT22;56914;51.058;9.326;2023-01-25T01:09:22;6.70;65.30
69677;DHT22;56914;51.058;9.326;2023-01-25T01:10:26;6.60;65.40
69677;DHT22;56914;51.058;9.326;2023-01-25T01:11:28;6.60;65.10
69677;DHT22;56914;51.058;9.326;2023-01-25T01:12:32;6.60;65.30
69677;DHT22;56914;51.058;9.326;2023-01-25T01:13:34;6.60;65.30
69677;DHT22;56914;51.058;9.326;2023-01-25T01:14:38;6.60;65.40
69677;DHT22;56914;51.058;9.326;2023-01-25T01:15:40;6.60;65.40
69677;DHT22;56914;51.058;9.326;2023-01-25T01:16:43;6.60;65.20
69677;DHT22;56914;51.058;9.326;2023-01-25T01:17:46;6.50;65.40
69677;DHT22;56914;51.058;9.326;2023-01-25T01:18:49;6.60;65.60
69677;DHT22;56914;51.058;9.326;2023-01-25T01:19:52;6.60;65.60
69677;DHT22;56914;51.058;9.326;2023-01-25T01:20:55;6.60;65.50
69677;DHT22;56914;51.058;9.326;2023-01-25T01:21:57;6.60;65.40
69677;DHT22;56914;51.058;9.326;2023-01-25T01:23:02;6.70;65.40
69677;DHT22;56914;51.058;9.326;2023-01-25T01:24:05;6.70;65.20
69677;DHT22;56914;51.058;9.326;2023-01-25T01:25:09;6.70;65.20
69677;DHT22;56914;51.058;9.326;2023-01-25T01:26:13;6.60;65.20
69677;DHT22;56914;51.058;9.326;2023-01-25T01:27:17;6.60;65.20
69677;DHT22;56914;51.058;9.326;2023-01-25T01:28:20;6.60;65.30
69677;DHT22;56914;51.058;9.326;2023-01-25T01:29:23;6.70;65.30
69677;DHT22;56914;51.058;9.326;2023-01-25T01:30:26;6.60;65.20
69677;DHT22;56914;51.058;9.326;2023-01-25T01:31:28;6.60;65.40
69677;DHT22;56914;51.058;9.326;2023-01-25T01:32:32;6.70;65.50
69677;DHT22;56914;51.058;9.326;2023-01-25T01:33:34;6.60;65.50
69677;DHT22;56914;51.058;9.326;2023-01-25T01:34:40;6.70;65.50
69677;DHT22;56914;51.058;9.326;2023-01-25T02:11:17;6.30;66.30
69677;DHT22;56914;51.058;9.326;2023-01-25T22:51:41;5.60;63.50
